Flight Information

DEPARTURE
BULLHEAD CITY, AZ
Elevation:
707
Runways:
16/34 - 8501x150 - ASPH-G
ATIS:
119.825
Ground:
118.25
Tower:
BULLHEAD TOWER 123.9
DESTINATION
,
Elevation:
TPA:
1000 (est.)


6591.7 NM75° True-14° Var61° HDG

Flight Plan:
(click to file on line)

1. Type
2. Aircraft Identification
3. Aircraft Type / Special Equipment
4. True Airspeed
kts
5. Departure Airport
(ICAO code)
6. Arriving Airport
(ICAO code)
7. Cruising Altitude
ft
8. Alternate Airport
(ICAO code)
9. Route of Flight
10. Remarks


00:00:00 Departure ATIS: Destination ATIS:

Clearance Limit:
Route:
Altitude: Expect in minutes
Frequency:
Transponder: (7500 Hijack / 7600 Lost Comms / 7700 Emergency)


KIFP 101552Z 19005KT 20SM FEW120 34/M02 A2993
Time: 2020-07-10T15:52:00Z
1594397341
Winds: 190 @ 5 kts
Visibility: 20.0 sm
Clouds (AGL): FEW 12000
Temperature: 34.0 C
Dew Point: -2.0 C
Pressure: 29.929134 in Hgbr


Notes:

Data extracted from FAA Digital Chart Supplement. Effective: 0901Z Thursday, May 21, 2020 to 0901Z Thursday, Jul 16, 2020
Current ATIS data is provided courtisy of PilotEdge.